This is the latest recevied weather packets stored in our database for station/object K1RFS. If no packets are shown the sender has not sent any weather packets the latest 10 day(s).
| Time | Temp. | Humidity | Pressure | Rain* | Wind** | Luminosity | Snow |
|---|---|---|---|---|---|---|---|
| 1787586310 | 25.56° C | 38% | 1008.5 hPa | 0 mm | - | 31 W/m² | - |
| 1787586006 | 25.56° C | 39% | 1008.2 hPa | 0 mm | - | 26 W/m² | - |
| 1787585701 | 26.11° C | 37% | 1008 hPa | 0 mm | - | 34 W/m² | - |
| 1787585395 | 25.56° C | 38% | 1007.9 hPa | 0 mm | - | 66 W/m² | - |
| 1787585091 | 25° C | 43% | 1007.7 hPa | 0 mm | - | 94 W/m² | - |
| 1787584787 | 24.44° C | 44% | 1007.4 hPa | 0 mm | - | 115 W/m² | - |
| 1787584484 | 23.33° C | 49% | 1007.4 hPa | 0 mm | - | 116 W/m² | - |
| 1787584178 | 22.78° C | 49% | 1007.4 hPa | 0 mm | - | 96 W/m² | - |
| 1787583872 | 22.78° C | 50% | 1007.4 hPa | 0 mm | - | 84 W/m² | - |
| 1787583567 | 22.78° C | 50% | 1007.6 hPa | 0 mm | - | 62 W/m² | - |
| 1787583266 | 22.78° C | 50% | 1007.6 hPa | 0 mm | - | 67 W/m² | - |
| 1787582961 | 22.22° C | 50% | 1007.6 hPa | 0 mm | - | 71 W/m² | - |
| 1787582656 | 22.22° C | 50% | 1007.6 hPa | 0 mm | - | 52 W/m² | - |
| 1787582353 | 22.22° C | 50% | 1007.4 hPa | 0 mm | - | 49 W/m² | - |
| 1787582052 | 21.67° C | 50% | 1007.4 hPa | 0 mm | - | 54 W/m² | - |
| 1787581747 | 21.67° C | 53% | 1007.4 hPa | 0 mm | - | 50 W/m² | - |
| 1787581442 | 21.67° C | 54% | 1007.4 hPa | 0 mm | - | 43 W/m² | - |
| 1787581141 | 21.67° C | 52% | 1007.4 hPa | 0 mm | - | 39 W/m² | - |
| 1787580837 | 21.67° C | 51% | 1007.6 hPa | 0 mm | - | 42 W/m² | - |
| 1787580534 | 21.11° C | 54% | 1007.4 hPa | 0 mm | - | 46 W/m² | - |
| 1787580233 | 21.11° C | 54% | 1007.4 hPa | 0 mm | - | 46 W/m² | - |
| 1787579928 | 21.11° C | 53% | 1007.4 hPa | 0 mm | - | 37 W/m² | - |
| 1787579623 | 21.11° C | 53% | 1007.6 hPa | 0 mm | - | 34 W/m² | - |
| 1787579318 | 21.11° C | 51% | 1007.3 hPa | 0 mm | - | 27 W/m² | - |
| 1787579013 | 21.11° C | 51% | 1007.2 hPa | 0 mm | - | 24 W/m² | - |
* Rain latest hour (hover to see other rain measurements)
** Current wind speed in m/s (hover to see current wind gust speed)